Time;durP1;ratioP1;P1;durP2;ratioP2;P2;SDS_P1;SDS_P2;PMS_P1;PMS_P2;Temp;Humidity;BMP_temperature;BMP_pressure;BME280_temperature;BME280_humidity;BME280_pressure;Samples;Min_cycle;Max_cycle;Signal;HPM_P1;HPM_P2
2022/03/18 00:01:45;;;;;;;;;;;;;;;;;;4450888;32;20068;-85
2022/03/18 00:04:12;;;;;;;20.35;9.25;;;;;;;;;;4440471;32;19951;-85
2022/03/18 00:06:37;;;;;;;18.15;8.73;;;;;;;;;;4434156;32;20048;-85
2022/03/18 00:09:02;;;;;;;;;;;;;;;;;;4438341;32;20029;-83
2022/03/18 00:11:27;;;;;;;19.87;9.95;;;;;;;;;;4439026;32;19929;-84
2022/03/18 00:13:52;;;;;;;;;;;;;;;;;;4439738;32;20412;-84
2022/03/18 00:16:17;;;;;;;18.90;8.05;;;;;;;;;;4436915;32;19984;-82
2022/03/18 00:18:42;;;;;;;;;;;;;;;;;;4439263;32;20155;-84
2022/03/18 00:21:08;;;;;;;20.95;7.85;;;;;;;;;;4435852;32;19937;-84
2022/03/18 00:23:33;;;;;;;;;;;;;;;;;;4454610;32;20029;-84
2022/03/18 00:25:59;;;;;;;19.20;8.73;;;;;;;;;;4452102;32;19951;-84
2022/03/18 00:28:24;;;;;;;;;;;;;;;;;;4448943;32;20029;-85
2022/03/18 00:30:49;;;;;;;22.95;8.55;;;;;;;;;;4448129;32;20293;-84
2022/03/18 00:33:15;;;;;;;;;;;;;;;;;;4450606;32;20025;-85
2022/03/18 00:35:40;;;;;;;25.90;9.45;;;;;;;;;;4443629;32;20059;-84
2022/03/18 00:38:05;;;;;;;;;;;;;;;;;;4434401;32;20103;-84
2022/03/18 00:40:31;;;;;;;24.15;8.90;;;;;;;;;;4432722;32;19940;-84
2022/03/18 00:42:56;;;;;;;;;;;;;;;;;;4442345;32;20184;-84
2022/03/18 00:45:22;;;;;;;21.90;9.40;;;;;;;;;;4449417;32;19917;-84
2022/03/18 00:53:15;;;;;;;19.17;8.85;;;;;;;;;;4444947;32;20036;-85
2022/03/18 00:55:40;;;;;;;;;;;;;;;;;;4445514;32;20018;-85
2022/03/18 00:58:05;;;;;;;17.25;9.52;;;;;;;;;;4448752;32;19933;-85
2022/03/18 01:00:30;;;;;;;;;;;;;;;;;;4454838;32;20140;-83
2022/03/18 01:02:55;;;;;;;21.98;8.35;;;;;;;;;;4450617;32;19959;-84
2022/03/18 01:05:21;;;;;;;16.65;7.35;;;;;;;;;;4449755;32;20147;-85
2022/03/18 01:07:46;;;;;;;;;;;;;;;;;;4448693;32;20112;-85
2022/03/18 01:10:11;;;;;;;18.65;9.20;;;;;;;;;;4443960;32;19983;-85
2022/03/18 01:12:37;;;;;;;;;;;;;;;;;;4447285;32;20112;-85
2022/03/18 01:15:02;;;;;;;25.15;8.07;;;;;;;;;;4447733;32;19941;-85
2022/03/18 01:17:27;;;;;;;;;;;;;;;;;;4452052;32;20013;-85
2022/03/18 01:19:52;;;;;;;21.37;8.27;;;;;;;;;;4452473;32;19936;-85
2022/03/18 01:22:18;;;;;;;;;;;;;;;;;;4452897;32;20113;-83
2022/03/18 01:24:43;;;;;;;20.10;11.25;;;;;;;;;;4451013;32;20078;-86
2022/03/18 01:27:08;;;;;;;;;;;;;;;;;;4441923;32;20125;-84
2022/03/18 01:29:34;;;;;;;20.70;8.27;;;;;;;;;;4442234;32;19985;-82
2022/03/18 01:31:59;;;;;;;;;;;;;;;;;;4436999;32;20096;-85
2022/03/18 01:34:25;;;;;;;30.67;9.50;;;;;;;;;;4432346;32;19929;-85
2022/03/18 01:36:50;;;;;;;;;;;;;;;;;;4434556;32;20209;-85
2022/03/18 01:39:16;;;;;;;26.27;8.95;;;;;;;;;;4440615;26;19952;-78
2022/03/18 01:41:41;;;;;;;;;;;;;;;;;;4421120;32;20022;-78
2022/03/18 01:44:08;;;;;;;19.54;9.06;;;;;;;;;;4420668;32;19971;-79
2022/03/18 01:46:33;;;;;;;18.30;8.30;;;;;;;;;;4406240;32;20110;-79
2022/03/18 01:48:59;;;;;;;;;;;;;;;;;;4405410;32;20075;-80
2022/03/18 01:51:24;;;;;;;22.50;8.48;;;;;;;;;;4403788;32;19950;-79
2022/03/18 01:54:44;;;;;;;;;;;;;;;;;;4404649;32;20058;-79
2022/03/18 01:56:34;;;;;;;25.48;9.50;;;;;;;;;;4405747;32;20337;-79
2022/03/18 01:58:59;;;;;;;;;;;;;;;;;;4418316;32;20054;-79
2022/03/18 02:01:25;;;;;;;16.70;8.40;;;;;;;;;;4420646;32;19964;-79
2022/03/18 02:03:50;;;;;;;;;;;;;;;;;;4421244;32;20099;-79
2022/03/18 02:06:15;;;;;;;20.67;9.10;;;;;;;;;;4420546;32;19951;-79
2022/03/18 02:08:44;;;;;;;;;;;;;;;;;;4420728;32;20056;-76
2022/03/18 02:11:09;;;;;;;16.27;8.73;;;;;;;;;;4420859;32;19952;-79
2022/03/18 02:13:34;;;;;;;;;;;;;;;;;;4420924;32;20022;-79
2022/03/18 02:16:01;;;;;;;26.95;9.15;;;;;;;;;;4420017;32;19969;-78
2022/03/18 02:18:26;;;;;;;22.10;9.73;;;;;;;;;;4418830;32;20109;-78
2022/03/18 02:20:51;;;;;;;24.17;9.63;;;;;;;;;;4419229;32;20026;-79
2022/03/18 02:23:16;;;;;;;;;;;;;;;;;;4420821;32;20563;-77
2022/03/18 02:25:42;;;;;;;20.33;8.13;;;;;;;;;;4420105;32;20038;-80
2022/03/18 02:28:08;;;;;;;;;;;;;;;;;;4421801;32;20425;-78
2022/03/18 02:30:34;;;;;;;21.17;9.15;;;;;;;;;;4422978;32;20294;-79
2022/03/18 02:32:59;;;;;;;;;;;;;;;;;;4423206;32;20056;-77
2022/03/18 02:35:28;;;;;;;17.92;8.68;;;;;;;;;;4423450;32;19933;-78
2022/03/18 02:37:53;;;;;;;20.98;9.25;;;;;;;;;;4419637;32;20126;-80
2022/03/18 02:40:18;;;;;;;;;;;;;;;;;;4408311;32;20129;-80
2022/03/18 02:42:44;;;;;;;27.42;9.13;;;;;;;;;;4408150;32;19953;-79
2022/03/18 02:45:10;;;;;;;;;;;;;;;;;;4407692;32;20099;-79
2022/03/18 02:47:35;;;;;;;15.00;9.43;;;;;;;;;;4407421;32;19948;-78
2022/03/18 02:50:00;;;;;;;;;;;;;;;;;;4408727;32;20019;-79
2022/03/18 02:52:25;;;;;;;22.50;9.00;;;;;;;;;;4407981;32;20248;-79
2022/03/18 02:54:50;;;;;;;;;;;;;;;;;;4407551;32;20022;-79
2022/03/18 02:57:16;;;;;;;17.65;8.82;;;;;;;;;;4407300;32;19955;-78
2022/03/18 02:59:41;;;;;;;;;;;;;;;;;;4408523;32;20545;-79
2022/03/18 03:02:06;;;;;;;16.40;8.65;;;;;;;;;;4418865;32;20348;-79
2022/03/18 03:04:31;;;;;;;;;;;;;;;;;;4407713;32;20019;-79
2022/03/18 03:09:40;;;;;;;17.70;8.88;;;;;;;;;;4408101;32;20103;-77
2022/03/18 03:12:05;;;;;;;;;;;;;;;;;;4405208;32;20101;-78
2022/03/18 03:14:30;;;;;;;20.25;8.82;;;;;;;;;;4407342;32;20010;-78
2022/03/18 03:16:55;;;;;;;;;;;;;;;;;;4408383;32;20019;-78
2022/03/18 03:19:21;;;;;;;19.10;9.13;;;;;;;;;;4407639;32;19969;-78
2022/03/18 03:21:46;;;;;;;;;;;;;;;;;;4407865;32;20110;-79
2022/03/18 03:24:11;;;;;;;20.17;10.13;;;;;;;;;;4406974;32;19933;-79
2022/03/18 03:26:36;;;;;;;;;;;;;;;;;;4407139;32;20022;-79
2022/03/18 03:29:01;;;;;;;16.60;8.75;;;;;;;;;;4407442;32;19961;-78
2022/03/18 03:31:26;;;;;;;;;;;;;;;;;;4407845;32;20042;-79
2022/03/18 03:33:52;;;;;;;21.83;8.85;;;;;;;;;;4406673;32;19935;-79
2022/03/18 03:36:17;;;;;;;;;;;;;;;;;;4407611;32;20091;-79
2022/03/18 03:38:43;;;;;;;19.55;9.30;;;;;;;;;;4406422;32;19960;-80
2022/03/18 03:41:08;;;;;;;;;;;;;;;;;;4407125;32;20030;-79
2022/03/18 03:43:33;;;;;;;21.10;9.70;;;;;;;;;;4418312;32;19933;-79
2022/03/18 03:45:58;;;;;;;;;;;;;;;;;;4407418;32;20120;-78
2022/03/18 03:48:24;;;;;;;27.27;11.30;;;;;;;;;;4406680;32;19945;-79
2022/03/18 03:50:49;;;;;;;;;;;;;;;;;;4407577;32;20445;-79
2022/03/18 03:53:14;;;;;;;22.30;9.98;;;;;;;;;;4406981;32;20007;-79
2022/03/18 03:55:40;;;;;;;25.02;9.45;;;;;;;;;;4406551;32;20130;-79
2022/03/18 03:58:06;;;;;;;19.87;10.52;;;;;;;;;;4406631;32;20122;-77
2022/03/18 04:00:31;;;;;;;21.52;10.10;;;;;;;;;;4407879;32;20430;-79
2022/03/18 04:02:56;;;;;;;;;;;;;;;;;;4406972;32;20022;-78
2022/03/18 04:05:22;;;;;;;25.40;11.35;;;;;;;;;;4406911;32;19975;-79
2022/03/18 04:07:47;;;;;;;;;;;;;;;;;;4408161;32;20045;-77
2022/03/18 04:10:13;;;;;;;31.10;11.23;;;;;;;;;;4407183;32;19965;-78
2022/03/18 04:12:39;;;;;;;24.37;10.13;;;;;;;;;;4406786;32;20428;-79
2022/03/18 04:15:04;;;;;;;;;;;;;;;;;;4392937;32;20018;-79
2022/03/18 04:17:36;;;;;;;24.20;10.05;;;;;;;;;;4406703;32;19950;-77
2022/03/18 04:20:01;;;;;;;26.40;10.88;;;;;;;;;;4404760;32;20088;-79
2022/03/18 04:22:26;;;;;;;;;;;;;;;;;;4405488;32;20340;-78
2022/03/18 04:24:51;;;;;;;20.37;10.70;;;;;;;;;;4406289;32;19953;-78
2022/03/18 04:27:16;;;;;;;20.42;9.07;;;;;;;;;;4404782;32;20018;-77
2022/03/18 04:29:41;;;;;;;;;;;;;;;;;;4409017;32;20052;-77
2022/03/18 04:32:07;;;;;;;21.40;9.88;;;;;;;;;;4410480;32;19937;-77
2022/03/18 04:34:32;;;;;;;;;;;;;;;;;;4407436;32;20118;-78
2022/03/18 04:36:57;;;;;;;22.65;10.18;;;;;;;;;;4406329;32;19933;-79
2022/03/18 04:39:22;;;;;;;;;;;;;;;;;;4406457;32;20407;-77
2022/03/18 04:41:47;;;;;;;23.55;9.70;;;;;;;;;;4406742;32;19951;-78
2022/03/18 04:44:12;;;;;;;;;;;;;;;;;;4407198;32;20135;-78
2022/03/18 04:46:37;;;;;;;25.95;10.88;;;;;;;;;;4405815;32;19941;-78
2022/03/18 04:49:03;;;;;;;;;;;;;;;;;;4406228;32;20118;-77
2022/03/18 04:51:30;;;;;;;21.64;10.74;;;;;;;;;;4406855;32;19933;-77
2022/03/18 04:53:55;;;;;;;21.10;10.43;;;;;;;;;;4405094;32;20068;-76
2022/03/18 04:59:24;;;;;;;17.42;9.70;;;;;;;;;;4374107;32;19933;-76
2022/03/18 05:01:49;;;;;;;;;;;;;;;;;;4374383;32;20039;-78
2022/03/18 05:04:14;;;;;;;22.45;11.23;;;;;;;;;;4388529;32;20316;-78
2022/03/18 05:06:39;;;;;;;;;;;;;;;;;;4405830;32;20134;-77
2022/03/18 05:09:04;;;;;;;26.17;13.32;;;;;;;;;;4404184;32;20329;-77
2022/03/18 05:11:30;;;;;;;;;;;;;;;;;;4406336;32;20158;-78
2022/03/18 05:13:55;;;;;;;16.15;11.12;;;;;;;;;;4405479;32;19937;-77
2022/03/18 05:16:20;;;;;;;;;;;;;;;;;;4406269;32;20589;-77
2022/03/18 05:18:46;;;;;;;18.95;11.32;;;;;;;;;;4405627;32;19934;-77
2022/03/18 05:21:11;;;;;;;;;;;;;;;;;;4404484;32;20046;-76
2022/03/18 05:23:37;;;;;;;20.52;11.20;;;;;;;;;;4404156;32;19978;-78
2022/03/18 05:26:02;;;;;;;;;;;;;;;;;;4405540;32;20076;-76
2022/03/18 05:28:27;;;;;;;22.77;13.62;;;;;;;;;;4405294;32;19937;-78
2022/03/18 05:30:52;;;;;;;;;;;;;;;;;;4409522;32;20026;-77
2022/03/18 05:33:19;;;;;;;22.00;12.45;;;;;;;;;;4407032;32;19952;-77
2022/03/18 05:35:44;;;;;;;30.20;15.77;;;;;;;;;;4403854;32;20321;-77
2022/03/18 05:38:09;;;;;;;;;;;;;;;;;;4405941;32;20114;-78
2022/03/18 05:40:34;;;;;;;27.33;15.80;;;;;;;;;;4405759;32;19953;-77
2022/03/18 05:42:59;;;;;;;;;;;;;;;;;;4406085;32;20080;-76
2022/03/18 05:45:24;;;;;;;18.25;13.98;;;;;;;;;;4405370;32;19937;-78
2022/03/18 05:47:50;;;;;;;;;;;;;;;;;;4405517;32;20053;-76
2022/03/18 05:50:16;;;;;;;24.37;14.30;;;;;;;;;;4405506;32;19971;-78
2022/03/18 05:52:41;;;;;;;;;;;;;;;;;;4405699;32;20360;-78
2022/03/18 05:55:06;;;;;;;21.52;14.57;;;;;;;;;;4405323;32;19937;-76
2022/03/18 05:57:32;;;;;;;;;;;;;;;;;;4407455;32;20042;-77
2022/03/18 05:59:58;;;;;;;27.42;14.05;;;;;;;;;;4416585;32;19933;-78
2022/03/18 06:02:23;;;;;;;;;;;;;;;;;;4408115;32;20081;-76
2022/03/18 06:04:48;;;;;;;25.95;15.45;;;;;;;;;;4408039;32;19996;-77
2022/03/18 06:07:13;;;;;;;;;;;;;;;;;;4409600;32;20445;-77
2022/03/18 06:12:23;;;;;;;32.78;15.60;;;;;;;;;;4409519;32;20228;-75
2022/03/18 06:14:48;;;;;;;;;;;;;;;;;;4408921;32;20034;-77
2022/03/18 06:17:13;;;;;;;29.27;15.52;;;;;;;;;;4408959;32;20346;-76
2022/03/18 06:19:38;;;;;;;;;;;;;;;;;;4409158;32;20549;-78
2022/03/18 06:22:03;;;;;;;93.40;22.30;;;;;;;;;;4409376;32;20388;-77
2022/03/18 06:24:29;;;;;;;;;;;;;;;;;;4410800;32;20053;-79
2022/03/18 06:26:54;;;;;;;31.83;16.62;;;;;;;;;;4409665;32;20319;-78
2022/03/18 06:29:20;;;;;;;;;;;;;;;;;;4409861;32;20428;-79
2022/03/18 06:31:45;;;;;;;23.33;14.87;;;;;;;;;;4409026;32;19937;-76
2022/03/18 06:34:11;;;;;;;;;;;;;;;;;;4408928;32;20089;-78
2022/03/18 06:36:36;;;;;;;28.58;17.45;;;;;;;;;;4409542;32;19937;-78
2022/03/18 06:39:01;;;;;;;;;;;;;;;;;;4409633;32;20435;-76
2022/03/18 06:41:27;;;;;;;31.85;17.50;;;;;;;;;;4409168;32;19941;-77
2022/03/18 06:43:52;;;;;;;;;;;;;;;;;;4409098;32;20030;-77
2022/03/18 06:46:17;;;;;;;29.80;19.55;;;;;;;;;;4408373;32;20287;-80
2022/03/18 06:48:42;;;;;;;;;;;;;;;;;;4408685;32;20038;-77
2022/03/18 06:51:08;;;;;;;29.42;19.20;;;;;;;;;;4408053;32;19941;-77
2022/03/18 06:53:33;;;;;;;;;;;;;;;;;;4408241;32;20459;-77
2022/03/18 06:55:58;;;;;;;28.67;17.58;;;;;;;;;;4408090;32;19945;-77
2022/03/18 06:58:23;;;;;;;;;;;;;;;;;;4408681;32;20578;-77
2022/03/18 07:00:48;;;;;;;41.75;18.37;;;;;;;;;;4406207;32;19971;-76
2022/03/18 07:03:14;;;;;;;;;;;;;;;;;;4407845;32;20122;-78
2022/03/18 07:05:39;;;;;;;28.86;15.70;;;;;;;;;;4407955;32;20299;-76
2022/03/18 07:08:04;;;;;;;;;;;;;;;;;;4407441;32;20022;-77
2022/03/18 07:10:29;;;;;;;23.73;15.52;;;;;;;;;;4406990;32;19948;-76
2022/03/18 07:12:54;;;;;;;;;;;;;;;;;;4406981;32;20018;-78
2022/03/18 07:15:20;;;;;;;28.27;16.15;;;;;;;;;;4418661;32;19941;-77
2022/03/18 07:18:01;;;;;;;;;;;;;;;;;;4407551;32;20160;-79
2022/03/18 07:20:28;;;;;;;25.42;13.60;;;;;;;;;;4407155;32;20278;-79
2022/03/18 07:23:10;;;;;;;22.65;14.65;;;;;;;;;;4418132;32;20394;-80
2022/03/18 07:25:36;;;;;;;24.63;15.93;;;;;;;;;;4407301;32;20027;-80
2022/03/18 07:28:01;;;;;;;;;;;;;;;;;;4411880;32;20031;-79
2022/03/18 07:30:27;;;;;;;32.05;17.08;;;;;;;;;;4405818;32;20346;-80
2022/03/18 07:32:52;;;;;;;;;;;;;;;;;;4407410;32;20022;-79
2022/03/18 07:35:17;;;;;;;198.43;33.78;;;;;;;;;;4406993;32;19941;-77
2022/03/18 07:37:42;;;;;;;;;;;;;;;;;;4408084;32;20078;-82
2022/03/18 07:40:08;;;;;;;440.40;58.47;;;;;;;;;;4405965;32;19980;-82
2022/03/18 07:42:34;;;;;;;;;;;;;;;;;;4407956;32;20419;-84
2022/03/18 07:44:59;;;;;;;32.58;13.85;;;;;;;;;;4407847;32;19937;-81
2022/03/18 07:47:24;;;;;;;;;;;;;;;;;;4406368;32;20023;-82
2022/03/18 07:49:49;;;;;;;29.60;13.25;;;;;;;;;;4407177;32;19943;-83
2022/03/18 07:52:15;;;;;;;;;;;;;;;;;;4407723;32;20137;-83
2022/03/18 07:54:40;;;;;;;20.40;12.60;;;;;;;;;;4407295;32;19984;-84
2022/03/18 07:57:05;;;;;;;;;;;;;;;;;;4406117;32;20472;-83
2022/03/18 07:59:30;;;;;;;20.48;12.50;;;;;;;;;;4406600;32;19992;-82
2022/03/18 08:01:59;;;;;;;;;;;;;;;;;;4407265;32;20030;-83
2022/03/18 08:04:24;;;;;;;24.20;11.05;;;;;;;;;;4407729;32;19949;-83
2022/03/18 08:06:49;;;;;;;;;;;;;;;;;;4407048;32;20374;-83
2022/03/18 08:09:14;;;;;;;18.35;9.80;;;;;;;;;;4407182;32;19957;-82
2022/03/18 08:11:40;;;;;;;;;;;;;;;;;;4407330;32;20180;-83
2022/03/18 08:14:05;;;;;;;18.48;10.27;;;;;;;;;;4405452;32;19982;-83
2022/03/18 08:16:30;;;;;;;;;;;;;;;;;;4406906;32;20058;-84
2022/03/18 08:18:57;;;;;;;22.30;10.13;;;;;;;;;;4407035;32;20325;-82
2022/03/18 08:21:25;;;;;;;20.52;9.30;;;;;;;;;;4406421;32;20034;-82
2022/03/18 08:23:50;;;;;;;23.58;10.20;;;;;;;;;;4405894;32;20497;-83
2022/03/18 08:26:16;;;;;;;;;;;;;;;;;;4405577;32;20149;-81
2022/03/18 08:28:43;;;;;;;17.00;9.75;;;;;;;;;;4406584;32;20317;-78
2022/03/18 08:31:08;;;;;;;22.55;9.57;;;;;;;;;;4415680;32;20055;-81
2022/03/18 08:33:33;;;;;;;;;;;;;;;;;;4413963;32;20026;-82
2022/03/18 08:35:58;;;;;;;16.58;8.02;;;;;;;;;;4406444;32;20357;-80
2022/03/18 08:38:23;;;;;;;;;;;;;;;;;;4406723;32;20137;-81
2022/03/18 08:40:48;;;;;;;17.85;8.60;;;;;;;;;;4414727;32;20266;-80
2022/03/18 08:43:14;;;;;;;;;;;;;;;;;;4421142;32;20118;-79
2022/03/18 08:45:39;;;;;;;22.48;9.93;;;;;;;;;;4420884;32;19940;-79
2022/03/18 08:48:04;;;;;;;;;;;;;;;;;;4420296;32;20026;-79
2022/03/18 08:50:30;;;;;;;16.02;9.18;;;;;;;;;;4420956;32;19933;-77
2022/03/18 08:52:56;;;;;;;;;;;;;;;;;;4421341;32;20030;-77
2022/03/18 08:55:22;;;;;;;17.10;8.00;;;;;;;;;;4420702;32;19951;-82
2022/03/18 08:57:47;;;;;;;;;;;;;;;;;;4420103;32;20029;-78
2022/03/18 09:00:15;;;;;;;19.73;7.62;;;;;;;;;;4420766;32;19941;-77
2022/03/18 09:02:40;;;;;;;21.60;8.10;;;;;;;;;;4420560;32;20022;-79
2022/03/18 09:05:05;;;;;;;;;;;;;;;;;;4420959;32;20052;-80
2022/03/18 09:07:31;;;;;;;19.83;4.68;;;;;;;;;;4420271;32;19969;-77
2022/03/18 09:09:57;;;;;;;15.40;5.62;;;;;;;;;;4419466;32;20030;-75
2022/03/18 09:12:22;;;;;;;;;;;;;;;;;;4421252;32;20055;-79
2022/03/18 09:14:47;;;;;;;18.40;6.68;;;;;;;;;;4420373;32;19952;-77
2022/03/18 09:17:12;;;;;;;;;;;;;;;;;;4421344;32;20148;-78
2022/03/18 09:19:37;;;;;;;20.92;6.53;;;;;;;;;;4420338;32;19955;-77
2022/03/18 09:22:03;;;;;;;;;;;;;;;;;;4420111;32;20129;-79
2022/03/18 09:24:30;;;;;;;17.70;7.05;;;;;;;;;;4420418;32;19949;-80
2022/03/18 09:26:55;;;;;;;20.42;6.00;;;;;;;;;;4420196;32;20378;-80
2022/03/18 09:29:24;;;;;;;;;;;;;;;;;;4421371;32;20092;-79
2022/03/18 09:31:50;;;;;;;21.27;5.97;;;;;;;;;;4420894;32;20356;-75
2022/03/18 09:34:15;;;;;;;;;;;;;;;;;;4420917;32;20030;-78
2022/03/18 09:36:41;;;;;;;23.77;7.62;;;;;;;;;;4419038;32;20255;-79
2022/03/18 09:39:06;;;;;;;;;;;;;;;;;;4419157;32;20528;-79
2022/03/18 09:41:31;;;;;;;18.45;5.97;;;;;;;;;;4420579;32;19976;-79
2022/03/18 09:43:56;;;;;;;;;;;;;;;;;;4421115;32;20022;-79
2022/03/18 09:46:21;;;;;;;22.62;7.07;;;;;;;;;;4420604;32;19955;-79
2022/03/18 09:48:47;;;;;;;;;;;;;;;;;;4421515;32;20482;-79
2022/03/18 09:51:12;;;;;;;18.25;6.62;;;;;;;;;;4420088;32;19937;-79
2022/03/18 09:53:37;;;;;;;;;;;;;;;;;;4420907;32;20439;-81
2022/03/18 09:56:03;;;;;;;15.57;7.03;;;;;;;;;;4420202;32;20335;-79
2022/03/18 09:58:28;;;;;;;;;;;;;;;;;;4420545;32;20030;-78
2022/03/18 10:01:01;;;;;;;14.43;6.78;;;;;;;;;;4420024;32;19952;-78
2022/03/18 10:03:39;;;;;;;12.70;6.12;;;;;;;;;;4419689;32;20106;-80
2022/03/18 10:06:10;;;;;;;22.25;7.25;;;;;;;;;;4420211;32;20030;-79
2022/03/18 10:08:35;;;;;;;13.35;7.45;;;;;;;;;;4406864;32;20414;-78
2022/03/18 10:11:00;;;;;;;;;;;;;;;;;;4420978;32;20106;-78
2022/03/18 10:13:25;;;;;;;18.87;7.50;;;;;;;;;;4419949;32;19937;-78
2022/03/18 10:15:52;;;;;;;;;;;;;;;;;;4420963;32;20153;-79
2022/03/18 10:18:18;;;;;;;19.55;8.38;;;;;;;;;;4419951;32;19956;-78
2022/03/18 10:20:43;;;;;;;;;;;;;;;;;;4420163;32;20022;-81
2022/03/18 10:23:14;;;;;;;17.40;6.32;;;;;;;;;;4419918;32;19952;-79
2022/03/18 10:25:42;;;;;;;23.42;7.72;;;;;;;;;;4418549;32;20148;-79
2022/03/18 10:28:08;;;;;;;20.73;7.47;;;;;;;;;;4420509;32;20053;-78
2022/03/18 10:30:37;;;;;;;15.45;7.32;;;;;;;;;;4420421;32;20113;-80
2022/03/18 10:33:02;;;;;;;14.87;6.50;;;;;;;;;;4419847;32;20033;-78
2022/03/18 10:38:30;;;;;;;19.30;6.75;;;;;;;;;;4419643;32;20076;-76
2022/03/18 10:40:55;;;;;;;20.45;6.82;;;;;;;;;;4419548;32;20392;-76
2022/03/18 10:43:21;;;;;;;24.65;6.32;;;;;;;;;;4408373;32;20445;-81
2022/03/18 10:45:46;;;;;;;;;;;;;;;;;;4405440;32;20093;-82
2022/03/18 10:48:13;;;;;;;15.77;5.07;;;;;;;;;;4404708;32;20313;-76
2022/03/18 10:50:40;;;;;;;14.93;6.00;;;;;;;;;;4407182;32;20053;-75
2022/03/18 10:53:06;;;;;;;18.58;6.28;;;;;;;;;;4417005;32;20136;-80
2022/03/18 10:55:36;;;;;;;15.38;7.05;;;;;;;;;;4421194;32;20026;-76
2022/03/18 10:58:05;;;;;;;14.48;6.80;;;;;;;;;;4417629;32;20125;-78
2022/03/18 11:00:31;;;;;;;15.30;6.10;;;;;;;;;;4407264;32;20083;-76
2022/03/18 11:02:58;;;;;;;15.57;6.85;;;;;;;;;;4407499;32;20046;-75
2022/03/18 11:05:24;;;;;;;17.45;6.05;;;;;;;;;;4407268;32;20167;-76
2022/03/18 11:07:52;;;;;;;16.23;6.50;;;;;;;;;;4407043;32;20018;-79
2022/03/18 11:13:05;;;;;;;15.75;5.68;;;;;;;;;;4407981;32;20037;-76
2022/03/18 11:15:32;;;;;;;14.82;6.43;;;;;;;;;;4406830;32;20058;-77
2022/03/18 11:17:57;;;;;;;23.17;6.72;;;;;;;;;;4406661;32;20455;-77
2022/03/18 11:20:27;;;;;;;14.75;6.20;;;;;;;;;;4406983;32;20015;-77
2022/03/18 11:22:52;;;;;;;15.32;5.85;;;;;;;;;;4407054;32;20413;-76
2022/03/18 11:25:18;;;;;;;22.95;7.43;;;;;;;;;;4407035;32;20104;-78
2022/03/18 11:27:44;;;;;;;11.77;5.57;;;;;;;;;;4407528;32;20065;-76
2022/03/18 11:30:28;;;;;;;13.23;6.03;;;;;;;;;;4405625;32;20335;-76
2022/03/18 11:33:05;;;;;;;29.95;7.78;;;;;;;;;;4406443;32;20021;-79
2022/03/18 11:35:49;;;;;;;12.43;5.95;;;;;;;;;;4410273;32;20100;-78
2022/03/18 11:38:15;;;;;;;13.90;5.85;;;;;;;;;;4392646;32;20061;-81
2022/03/18 11:40:59;;;;;;;9.88;5.35;;;;;;;;;;4391981;32;20043;-78
2022/03/18 11:43:32;;;;;;;12.70;5.12;;;;;;;;;;4392213;32;20019;-76
2022/03/18 11:46:12;;;;;;;13.77;5.55;;;;;;;;;;4406421;32;20052;-79
2022/03/18 11:48:38;;;;;;;9.27;4.90;;;;;;;;;;4406773;32;20400;-79
2022/03/18 11:51:23;;;;;;;9.93;5.47;;;;;;;;;;4406701;32;20364;-77
2022/03/18 11:53:51;;;;;;;30.05;7.05;;;;;;;;;;4406456;32;20348;-81
2022/03/18 11:56:17;;;;;;;15.68;5.18;;;;;;;;;;4406317;32;20053;-76
2022/03/18 11:58:43;;;;;;;10.73;5.07;;;;;;;;;;4406095;32;20065;-75
2022/03/18 12:01:32;;;;;;;15.30;5.30;;;;;;;;;;4405898;32;20098;-78
2022/03/18 12:03:57;;;;;;;15.65;5.37;;;;;;;;;;4405523;32;20022;-75
2022/03/18 12:06:22;;;;;;;16.05;5.40;;;;;;;;;;4407349;32;20468;-78
2022/03/18 12:08:58;;;;;;;18.75;6.80;;;;;;;;;;4405787;32;20030;-80
2022/03/18 12:11:28;;;;;;;11.20;4.90;;;;;;;;;;4391145;32;20034;-76
2022/03/18 12:13:53;;;;;;;12.90;5.43;;;;;;;;;;4389304;32;20027;-77
2022/03/18 12:16:19;;;;;;;14.13;5.87;;;;;;;;;;4405398;32;20113;-78
2022/03/18 12:18:45;;;;;;;13.25;5.05;;;;;;;;;;4405780;32;20086;-78
2022/03/18 12:21:11;;;;;;;16.42;6.22;;;;;;;;;;4405821;32;20078;-77
2022/03/18 12:23:36;;;;;;;12.30;5.70;;;;;;;;;;4405738;32;20075;-79
2022/03/18 12:26:05;;;;;;;13.02;5.37;;;;;;;;;;4404345;32;20082;-77
2022/03/18 12:28:43;;;;;;;9.10;5.55;;;;;;;;;;4405992;32;20497;-78
2022/03/18 12:31:15;;;;;;;16.20;5.28;;;;;;;;;;4406057;32;20056;-78
2022/03/18 12:33:40;;;;;;;14.80;5.40;;;;;;;;;;4405288;32;20022;-78
2022/03/18 12:36:06;;;;;;;14.93;5.78;;;;;;;;;;4406002;32;20410;-80
2022/03/18 12:38:35;;;;;;;22.75;6.37;;;;;;;;;;4403841;32;20146;-77
2022/03/18 12:41:00;;;;;;;10.52;5.00;;;;;;;;;;4405996;32;20027;-79
2022/03/18 12:43:26;;;;;;;14.82;4.75;;;;;;;;;;4405620;32;20049;-82
2022/03/18 12:45:51;;;;;;;11.25;4.12;;;;;;;;;;4406054;32;20115;-79
2022/03/18 12:48:21;;;;;;;9.95;4.00;;;;;;;;;;4404476;32;20072;-78
2022/03/18 12:50:47;;;;;;;11.07;4.20;;;;;;;;;;4406286;32;20061;-82
2022/03/18 12:53:30;;;;;;;10.32;3.50;;;;;;;;;;4405804;32;20022;-79
2022/03/18 12:55:56;;;;;;;12.63;3.78;;;;;;;;;;4406231;32;20034;-78
2022/03/18 12:58:23;;;;;;;8.82;3.15;;;;;;;;;;4405616;32;20030;-81
2022/03/18 13:00:54;;;;;;;8.48;3.67;;;;;;;;;;4405961;32;20030;-80
2022/03/18 13:03:29;;;;;;;9.43;3.67;;;;;;;;;;4405465;32;20018;-80
2022/03/18 13:06:02;;;;;;;13.97;3.70;;;;;;;;;;4406125;32;20099;-82
2022/03/18 13:08:29;;;;;;;9.52;3.60;;;;;;;;;;4406023;32;20144;-81
2022/03/18 13:10:56;;;;;;;16.80;4.65;;;;;;;;;;4404778;32;20091;-81
2022/03/18 13:13:21;;;;;;;9.43;3.33;;;;;;;;;;4403953;32;20058;-81
2022/03/18 13:15:52;;;;;;;10.57;4.07;;;;;;;;;;4405057;32;20376;-79
2022/03/18 13:18:17;;;;;;;9.93;3.70;;;;;;;;;;4405935;32;20226;-77
2022/03/18 13:20:47;;;;;;;6.82;3.70;;;;;;;;;;4405566;32;20034;-85
2022/03/18 13:23:13;;;;;;;5.12;2.92;;;;;;;;;;4405089;32;20027;-82
2022/03/18 13:25:40;;;;;;;10.77;3.80;;;;;;;;;;4405110;32;20145;-80
2022/03/18 13:28:07;;;;;;;10.63;5.05;;;;;;;;;;4404991;32;20085;-79
2022/03/18 13:33:17;;;;;;;9.55;3.60;;;;;;;;;;4404852;32;20045;-79
2022/03/18 13:35:45;;;;;;;13.25;3.70;;;;;;;;;;4405137;32;20023;-79
2022/03/18 13:38:11;;;;;;;11.65;3.85;;;;;;;;;;4404441;32;20027;-81
2022/03/18 13:40:38;;;;;;;8.70;3.65;;;;;;;;;;4406215;32;20358;-80
2022/03/18 13:43:08;;;;;;;7.57;3.42;;;;;;;;;;4403628;32;20053;-80
2022/03/18 13:45:34;;;;;;;13.62;4.05;;;;;;;;;;4416496;32;20363;-78
2022/03/18 13:48:06;;;;;;;11.73;3.72;;;;;;;;;;4411256;32;20080;-81
2022/03/18 13:50:52;;;;;;;9.18;3.45;;;;;;;;;;4404520;32;20077;-76
2022/03/18 13:53:24;;;;;;;6.93;3.17;;;;;;;;;;4404155;32;20435;-78
2022/03/18 13:55:53;;;;;;;8.43;3.45;;;;;;;;;;4404871;32;20034;-77
2022/03/18 13:58:29;;;;;;;8.05;3.87;;;;;;;;;;4409148;32;20427;-79
2022/03/18 14:01:04;;;;;;;11.60;4.00;;;;;;;;;;4420447;32;20054;-76
2022/03/18 14:03:30;;;;;;;8.07;3.78;;;;;;;;;;4405400;32;20049;-81
2022/03/18 14:06:00;;;;;;;8.27;3.47;;;;;;;;;;4404803;32;20387;-77
2022/03/18 14:08:28;;;;;;;11.82;4.37;;;;;;;;;;4404918;32;20030;-79
2022/03/18 14:10:59;;;;;;;6.95;4.20;;;;;;;;;;4405102;32;20031;-80
2022/03/18 14:13:28;;;;;;;9.52;3.92;;;;;;;;;;4404812;32;20015;-79
2022/03/18 14:15:54;;;;;;;9.85;3.40;;;;;;;;;;4404378;32;20057;-80
2022/03/18 14:18:19;;;;;;;7.50;2.97;;;;;;;;;;4404631;32;20022;-78
2022/03/18 14:20:48;;;;;;;9.65;3.85;;;;;;;;;;4403669;32;20030;-76
2022/03/18 14:23:16;;;;;;;10.98;4.07;;;;;;;;;;4407226;32;20034;-78
2022/03/18 14:25:42;;;;;;;5.93;3.08;;;;;;;;;;4412213;32;20061;-80
2022/03/18 14:28:09;;;;;;;7.78;3.47;;;;;;;;;;4407671;32;20427;-80
2022/03/18 14:30:35;;;;;;;8.55;3.42;;;;;;;;;;4408916;32;20026;-75
2022/03/18 14:33:00;;;;;;;9.20;4.70;;;;;;;;;;4407713;32;20363;-80
2022/03/18 14:35:26;;;;;;;13.50;5.65;;;;;;;;;;4407637;32;20045;-76
2022/03/18 14:37:51;;;;;;;11.68;5.00;;;;;;;;;;4406932;32;20053;-79
2022/03/18 14:40:17;;;;;;;9.20;4.93;;;;;;;;;;4407657;32;20119;-78
2022/03/18 14:42:43;;;;;;;10.13;5.20;;;;;;;;;;4407413;32;20042;-77
2022/03/18 14:45:10;;;;;;;12.20;5.35;;;;;;;;;;4407867;32;20030;-80
2022/03/18 14:47:35;;;;;;;9.00;5.25;;;;;;;;;;4407280;32;20053;-76
2022/03/18 14:50:00;;;;;;;15.55;4.93;;;;;;;;;;4420025;32;20058;-80
2022/03/18 14:52:26;;;;;;;11.70;4.78;;;;;;;;;;4422714;32;20026;-75
2022/03/18 14:57:35;;;;;;;12.50;4.62;;;;;;;;;;4422810;32;20130;-80
2022/03/18 15:00:03;;;;;;;12.43;4.90;;;;;;;;;;4421594;32;20424;-79
2022/03/18 15:02:31;;;;;;;10.82;5.22;;;;;;;;;;4407301;32;20039;-78
2022/03/18 15:05:01;;;;;;;14.52;4.75;;;;;;;;;;4406504;32;20093;-76
2022/03/18 15:07:27;;;;;;;11.25;4.43;;;;;;;;;;4407688;32;20044;-76
2022/03/18 15:09:52;;;;;;;12.52;4.57;;;;;;;;;;4409440;32;20023;-80
2022/03/18 15:12:18;;;;;;;11.05;4.47;;;;;;;;;;4408765;32;20421;-79
2022/03/18 15:14:44;;;;;;;12.32;4.87;;;;;;;;;;4408422;32;20022;-82
2022/03/18 15:17:09;;;;;;;14.98;5.93;;;;;;;;;;4410024;32;20052;-80
2022/03/18 15:19:35;;;;;;;14.30;4.70;;;;;;;;;;4416539;32;20029;-79
2022/03/18 15:22:00;;;;;;;12.73;5.30;;;;;;;;;;4415862;32;20052;-79
2022/03/18 15:24:25;;;;;;;11.85;5.65;;;;;;;;;;4414254;32;20030;-77
2022/03/18 15:26:51;;;;;;;14.00;5.45;;;;;;;;;;4414005;32;20139;-76